ソチ の空港の天気 - METARとTAF

ソチ空港 ( URSS / AER ) - ロシア ソチ
飛行場実況気象(Metar)
観測時間02/18 01:30 MSK (02/17 22:30 UTC)
風向・風速北東 2m/s
視程10km以上
天気現象
全天の8割程度の雲 雲底高度 610m
全天を覆う雲 雲底高度 1580m
気温6℃
湿度93%
気圧1022hPa
METARURSS 172230Z 04002MPS 9999 BKN020 OVC052CB 06/05 Q1022 R02/290255 R06/290255 NOSIG RMK R06/08002MPS MT OBSC QFE765
過去の天気等 Google飛行場航空写真 Wunderground天気予報

過去48時間のMETAR

飛行場予報(TAF)
発表時間: 2/17 22:56 MSK (2/17 19:56 UTC)
予報対象時間: 18日0時 MSK ~ 19日0時 MSK
風向・風速東 4m/s
視程5000m
天気現象弱いしゅう雨
全天の8割程度の雲 雲底高度 340m
全天の8割程度の積乱雲 雲底高度 910m
全天を覆う雲 雲底高度 3050m
18日0時 MSK ~ 18日10時 MSK に一時的に
風向・風速北北東 6m/s
視程2200m
天気現象弱いしゅう雨 もや
18日10時 MSK ~ 18日11時 MSK に徐々に
風向・風速南東 6m/s
全天の8割程度の雲 雲底高度 460m
全天の8割程度の積乱雲 雲底高度 610m
全天を覆う雲 雲底高度 3050m
18日20時 MSK から
風向・風速北東 5m/s
視程10km以上
全天の4割程度の雲 雲底高度 610m
全天の4割程度の雲 雲底高度 3050m
18日20時 MSK ~ 18日24時 MSK に一時的に
風向・風速不定 1m/s
TAF URSS 171956Z 1721/1821 08004MPS 5000 -SHRA BKN011 BKN030CB OVC100
TEMPO 1721/1807 03006MPS 2200 -SHRA BR
BECMG 1807/1808 14006MPS BKN015 BKN020CB OVC100
FM181700 05005MPS 9999 SCT020 SCT100
TEMPO 1817/1821 VRB01MPS